KAKR/AKR METAR and TAF weather

Enter ICAO airport designator
Station Type Date Time Source
KAKR METAR 2021/01/27 13:54 UTC NOAA

KAKR 271354Z AUTO 36008KT 10SM FEW016 BKN026 OVC034 M01/M05 A3018 RMK AO2 PRESRR SLP230 T10061050


Station Type Date Time Source
KAKR Decoded METAR 2021/01/27 13:54 UTC NOAA

AKRON FULTON INTERNATIONAL, OH, United States (KAKR) 41-02N 081-28W 363M
Jan 27, 2021 - 08:54 AM EST / 2021.01.27 1354 UTC
Wind: from the N (360 degrees) at 9 MPH (8 KT):0
Visibility: 10 mile(s):0
Sky conditions: overcast
Temperature: 30.9 F (-0.6 C)
Windchill: 23 F (-5 C):1
Dew Point: 23.0 F (-5.0 C)
Relative Humidity: 72%
Pressure (altimeter): 30.18 in. Hg (1022 hPa)
Pressure tendency: rising rapidly
ob: KAKR 271354Z AUTO 36008KT 10SM FEW016 BKN026 OVC034 M01/M05 A3018 RMK AO2 PRESRR SLP230 T10061050
cycle: 14

Station Type Date Time Source
KAKR TAF UTC NOAA

Error!

Example: see airport list